Time;durP1;ratioP1;P1;durP2;ratioP2;P2;SDS_P1;SDS_P2;PMS_P1;PMS_P2;Temp;Humidity;BMP_temperature;BMP_pressure;BME280_temperature;BME280_humidity;BME280_pressure;Samples;Min_cycle;Max_cycle;Signal;HPM_P1;HPM_P2
2023/03/20 03:20:19;;;;;;;;;;;22.50;72.70;;;;;;5089109;28;19932;-69
2023/03/20 03:22:46;;;;;;;;;;;22.50;73.40;;;;;;5073392;28;20386;-69
2023/03/20 03:25:12;;;;;;;;;;;22.60;73.30;;;;;;5090575;28;19919;-69
2023/03/20 03:27:47;;;;;;;;;;;22.60;73.50;;;;;;5090699;28;20001;-70
2023/03/20 03:30:33;;;;;;;;;;;22.70;73.20;;;;;;5091169;28;19970;-72
2023/03/20 03:33:03;;;;;;;;;;;22.50;72.30;;;;;;5080295;28;19934;-70
2023/03/20 03:35:30;;;;;;;;;;;22.50;72.30;;;;;;5065009;28;19908;-70
2023/03/20 03:38:06;;;;;;;;;;;22.50;72.60;;;;;;5071900;28;19916;-70
2023/03/20 03:40:35;;;;;;;;;;;22.60;72.40;;;;;;5063821;28;19993;-71
2023/03/20 03:43:10;;;;;;;;;;;22.60;72.80;;;;;;5073726;28;19908;-70
2023/03/20 03:45:43;;;;;;;;;;;22.50;72.40;;;;;;5069612;28;19943;-70
2023/03/20 03:48:20;;;;;;;;;;;22.40;72.70;;;;;;5055703;28;19912;-69
2023/03/20 03:50:51;;;;;;;;;;;22.40;73.10;;;;;;5059996;28;19912;-70
2023/03/20 03:53:30;;;;;;;;;;;22.40;73.00;;;;;;5065051;28;19936;-70
2023/03/20 03:56:00;;;;;;;;;;;22.50;72.60;;;;;;5065019;28;19912;-70
2023/03/20 03:58:27;;;;;;;;;;;22.50;70.60;;;;;;5094759;28;19911;-70
2023/03/20 04:00:54;;;;;;;;;;;22.50;70.70;;;;;;5074084;28;19923;-70
2023/03/20 04:03:22;;;;;;;;;;;22.50;70.70;;;;;;5068444;28;20010;-70
2023/03/20 04:05:49;;;;;;;;;;;22.50;70.40;;;;;;5064360;28;20605;-68
2023/03/20 04:08:16;;;;;;;;;;;22.50;71.60;;;;;;5074526;28;19912;-69
2023/03/20 04:10:43;;;;;;;;;;;22.50;74.40;;;;;;5077888;28;19919;-68
2023/03/20 04:13:10;;;;;;;;;;;22.40;74.50;;;;;;5076327;28;19907;-68
2023/03/20 04:15:37;;;;;;;;;;;22.30;74.70;;;;;;5084115;28;19912;-67
2023/03/20 04:29:53;;;;;;;;;;;22.30;74.70;;;;;;5059957;28;20310;-70
2023/03/20 04:32:20;;;;;;;;;;;22.20;73.90;;;;;;5069641;28;19920;-67
2023/03/20 04:34:47;;;;;;;;;;;22.20;74.30;;;;;;5091319;28;20335;-69
2023/03/20 04:37:14;;;;;;;;;;;22.20;73.90;;;;;;5092688;28;19916;-68
2023/03/20 04:39:41;;;;;;;;;;;22.30;73.60;;;;;;5063604;28;20346;-69
2023/03/20 04:42:08;;;;;;;;;;;22.30;75.10;;;;;;5092628;28;19923;-70
2023/03/20 04:44:35;;;;;;;;;;;22.20;74.80;;;;;;5092438;28;19908;-68
2023/03/20 04:47:02;;;;;;;;;;;22.10;75.60;;;;;;5092570;28;20011;-69
2023/03/20 04:49:28;;;;;;;;;;;22.00;76.40;;;;;;5092457;28;19924;-69
2023/03/20 04:51:55;;;;;;;;;;;21.90;76.60;;;;;;5092750;28;20005;-70
2023/03/20 04:54:22;;;;;;;;;;;21.90;75.20;;;;;;5092899;28;19908;-69
2023/03/20 04:56:49;;;;;;;;;;;21.90;74.30;;;;;;5092400;28;20263;-69
2023/03/20 04:59:15;;;;;;;;;;;21.90;73.80;;;;;;5092797;28;20305;-70
2023/03/20 05:01:42;;;;;;;;;;;22.00;72.50;;;;;;5073931;28;19920;-69
2023/03/20 05:04:09;;;;;;;;;;;22.10;72.10;;;;;;5074510;28;20335;-71
2023/03/20 05:06:35;;;;;;;;;;;22.20;71.80;;;;;;5072458;28;20333;-69
2023/03/20 05:09:02;;;;;;;;;;;22.20;71.60;;;;;;5072313;28;19909;-70
2023/03/20 05:11:29;;;;;;;;;;;22.20;70.60;;;;;;5072259;28;19916;-70
2023/03/20 05:13:56;;;;;;;;;;;22.20;69.90;;;;;;5072175;28;19944;-69
2023/03/20 05:16:23;;;;;;;;;;;22.30;69.70;;;;;;5076017;28;19991;-70
2023/03/20 05:18:49;;;;;;;;;;;22.30;73.00;;;;;;5076272;28;19916;-70
2023/03/20 05:21:16;;;;;;;;;;;22.30;73.90;;;;;;5076113;28;19920;-71
2023/03/20 05:23:43;;;;;;;;;;;22.10;75.10;;;;;;5076035;28;20003;-71
2023/03/20 05:26:09;;;;;;;;;;;22.10;75.50;;;;;;5075230;28;19909;-71
2023/03/20 05:28:36;;;;;;;;;;;22.10;75.20;;;;;;5057930;28;19913;-70
2023/03/20 05:31:03;;;;;;;;;;;21.90;75.10;;;;;;5076175;28;19913;-70
2023/03/20 05:33:30;;;;;;;;;;;22.00;74.60;;;;;;5075700;28;19916;-70
2023/03/20 05:35:56;;;;;;;;;;;22.00;73.80;;;;;;5057833;28;19977;-70
2023/03/20 05:38:24;;;;;;;;;;;22.00;73.50;;;;;;5058021;28;19986;-70
2023/03/20 05:40:55;;;;;;;;;;;22.00;72.70;;;;;;5075717;28;19923;-70
2023/03/20 05:43:22;;;;;;;;;;;22.00;71.90;;;;;;5075650;28;19915;-70
2023/03/20 05:45:48;;;;;;;;;;;22.00;71.20;;;;;;5075664;28;20343;-71
2023/03/20 05:48:15;;;;;;;;;;;22.00;71.30;;;;;;5057518;28;19908;-71
2023/03/20 05:50:42;;;;;;;;;;;22.10;70.90;;;;;;5075418;28;20378;-70
2023/03/20 05:53:08;;;;;;;;;;;22.10;71.00;;;;;;5057820;28;19920;-70
2023/03/20 05:55:35;;;;;;;;;;;22.10;70.60;;;;;;5075533;28;19954;-70
2023/03/20 05:58:02;;;;;;;;;;;22.20;69.80;;;;;;5075314;28;19964;-71
2023/03/20 06:00:29;;;;;;;;;;;22.20;70.00;;;;;;5057328;28;20003;-71
2023/03/20 06:02:55;;;;;;;;;;;22.20;69.10;;;;;;5057925;28;19947;-70
2023/03/20 06:05:22;;;;;;;;;;;22.20;69.10;;;;;;5075385;28;19909;-70
2023/03/20 06:07:49;;;;;;;;;;;22.20;68.20;;;;;;5075173;28;19908;-69
2023/03/20 06:10:16;;;;;;;;;;;22.20;68.30;;;;;;5057362;28;20011;-70
2023/03/20 06:12:42;;;;;;;;;;;22.30;68.40;;;;;;5056968;28;19912;-70
2023/03/20 06:15:09;;;;;;;;;;;22.30;68.90;;;;;;5074865;28;19932;-69
2023/03/20 06:17:36;;;;;;;;;;;22.30;69.40;;;;;;5075501;28;19909;-70
2023/03/20 06:20:03;;;;;;;;;;;22.30;68.00;;;;;;5074713;28;19912;-69
2023/03/20 06:22:29;;;;;;;;;;;22.30;67.60;;;;;;5075050;28;19909;-69
2023/03/20 06:24:56;;;;;;;;;;;22.30;68.00;;;;;;5074924;28;19974;-69
2023/03/20 06:27:23;;;;;;;;;;;22.30;66.30;;;;;;5056204;28;19913;-69
2023/03/20 06:29:49;;;;;;;;;;;22.30;65.50;;;;;;5074453;28;19921;-69
2023/03/20 06:32:17;;;;;;;;;;;22.30;66.40;;;;;;5074952;28;20476;-71
2023/03/20 06:34:43;;;;;;;;;;;22.40;66.00;;;;;;5074631;28;19908;-69
2023/03/20 06:37:10;;;;;;;;;;;22.40;64.30;;;;;;5074806;28;19912;-70
2023/03/20 06:39:37;;;;;;;;;;;22.40;64.50;;;;;;5074455;28;19915;-69
2023/03/20 06:42:03;;;;;;;;;;;22.40;63.30;;;;;;5057117;28;19912;-70
2023/03/20 06:44:30;;;;;;;;;;;22.40;63.40;;;;;;5074801;28;19915;-69
2023/03/20 06:46:57;;;;;;;;;;;22.40;63.20;;;;;;5074513;28;19908;-69
2023/03/20 06:49:24;;;;;;;;;;;22.40;62.20;;;;;;5056826;28;20012;-69
2023/03/20 06:51:50;;;;;;;;;;;22.40;63.10;;;;;;5056743;28;19909;-69
2023/03/20 06:54:17;;;;;;;;;;;22.40;62.90;;;;;;5056671;28;19908;-70
2023/03/20 06:56:44;;;;;;;;;;;22.40;62.60;;;;;;5074436;28;19934;-69
2023/03/20 06:59:11;;;;;;;;;;;22.40;63.40;;;;;;5074349;28;20005;-69
2023/03/20 07:01:37;;;;;;;;;;;22.50;62.50;;;;;;5073941;28;20465;-70
2023/03/20 07:04:04;;;;;;;;;;;22.40;62.60;;;;;;5074017;28;19987;-70
2023/03/20 07:06:32;;;;;;;;;;;22.40;63.50;;;;;;5074350;28;19908;-70
2023/03/20 07:09:00;;;;;;;;;;;22.40;62.90;;;;;;5083156;28;19959;-64
2023/03/20 07:11:27;;;;;;;;;;;22.40;63.40;;;;;;5079646;28;19916;-65
2023/03/20 07:13:54;;;;;;;;;;;22.40;63.40;;;;;;5086113;28;19920;-63
2023/03/20 07:16:21;;;;;;;;;;;22.40;64.10;;;;;;5078161;28;20294;-64
2023/03/20 07:18:48;;;;;;;;;;;22.40;63.60;;;;;;5079501;28;19912;-66
2023/03/20 07:21:18;;;;;;;;;;;22.30;64.30;;;;;;5081123;28;19925;-66
2023/03/20 07:23:45;;;;;;;;;;;22.30;64.50;;;;;;5063185;28;20206;-64
2023/03/20 07:26:12;;;;;;;;;;;22.30;64.00;;;;;;5077082;28;19913;-66
2023/03/20 07:28:39;;;;;;;;;;;22.30;64.00;;;;;;5088440;28;19919;-65
2023/03/20 07:31:06;;;;;;;;;;;22.30;64.70;;;;;;5090516;28;19981;-63
2023/03/20 07:33:32;;;;;;;;;;;22.30;65.20;;;;;;5088687;28;19963;-64
2023/03/20 07:35:59;;;;;;;;;;;22.30;64.90;;;;;;5091936;28;19970;-64
2023/03/20 07:38:26;;;;;;;;;;;22.30;65.80;;;;;;5089847;28;19931;-65
2023/03/20 07:40:54;;;;;;;;;;;22.30;65.50;;;;;;5091953;28;20353;-64
2023/03/20 07:43:21;;;;;;;;;;;22.30;65.70;;;;;;5087767;28;19942;-65
2023/03/20 07:45:47;;;;;;;;;;;22.30;65.80;;;;;;5091374;28;19919;-64
2023/03/20 08:58:26;;;;;;;;;;;22.20;69.50;;;;;;5055908;28;19982;-64
2023/03/20 09:00:53;;;;;;;;;;;22.10;69.50;;;;;;5088889;28;20977;-63
2023/03/20 09:03:20;;;;;;;;;;;22.10;69.70;;;;;;5081312;28;19915;-63
2023/03/20 09:05:47;;;;;;;;;;;22.10;70.20;;;;;;5096299;28;19904;-62
2023/03/20 09:08:14;;;;;;;;;;;22.10;69.90;;;;;;5096214;28;20270;-62
2023/03/20 09:10:41;;;;;;;;;;;22.10;70.00;;;;;;5096384;28;20431;-64
2023/03/20 09:13:07;;;;;;;;;;;22.10;70.00;;;;;;5096222;28;19908;-62
2023/03/20 09:15:34;;;;;;;;;;;22.10;70.80;;;;;;5094192;28;19955;-62
2023/03/20 09:18:01;;;;;;;;;;;22.10;70.60;;;;;;5087457;28;19908;-63
2023/03/20 09:20:28;;;;;;;;;;;22.20;70.50;;;;;;5080048;28;19924;-62
2023/03/20 09:22:55;;;;;;;;;;;22.10;70.70;;;;;;5075860;28;19992;-63
2023/03/20 09:25:22;;;;;;;;;;;22.10;70.90;;;;;;5081435;28;19919;-62
2023/03/20 09:27:54;;;;;;;;;;;22.10;73.40;;;;;;5094511;28;20015;-63
2023/03/20 09:30:22;;;;;;;;;;;22.10;75.70;;;;;;5094228;28;19916;-63
2023/03/20 09:32:49;;;;;;;;;;;22.00;76.30;;;;;;5090054;28;20370;-63
2023/03/20 09:35:15;;;;;;;;;;;22.00;76.80;;;;;;5080054;28;19919;-63
2023/03/20 09:37:42;;;;;;;;;;;22.00;77.30;;;;;;5095115;28;19915;-64
2023/03/20 09:40:17;;;;;;;;;;;21.90;77.50;;;;;;5093210;28;19920;-63
2023/03/20 09:42:44;;;;;;;;;;;21.90;77.80;;;;;;5085482;28;20289;-64
2023/03/20 09:45:14;;;;;;;;;;;21.80;77.80;;;;;;5094491;28;19912;-63
2023/03/20 09:47:46;;;;;;;;;;;21.70;77.80;;;;;;5077263;28;20372;-64
2023/03/20 09:50:33;;;;;;;;;;;21.70;78.10;;;;;;5062403;28;19913;-64
2023/03/20 09:53:06;;;;;;;;;;;21.70;78.20;;;;;;5077669;28;20019;-64
2023/03/20 09:55:34;;;;;;;;;;;21.70;77.90;;;;;;5095222;28;19959;-63
2023/03/20 20:17:58;;;;;;;;;;;20.30;68.90;;;;;;5071549;28;19931;-63
2023/03/20 20:20:25;;;;;;;;;;;20.30;68.20;;;;;;5086370;28;20397;-62
2023/03/20 20:22:52;;;;;;;;;;;20.30;68.30;;;;;;5076106;28;19918;-63
2023/03/20 20:25:19;;;;;;;;;;;20.30;68.10;;;;;;5055891;28;19912;-63
2023/03/20 20:27:46;;;;;;;;;;;20.30;68.80;;;;;;5088451;28;20255;-63
2023/03/20 20:30:15;;;;;;;;;;;20.40;68.30;;;;;;5087115;28;19920;-63
2023/03/20 20:32:41;;;;;;;;;;;20.30;68.60;;;;;;5091877;28;19915;-63
2023/03/20 20:35:08;;;;;;;;;;;20.40;68.80;;;;;;5091737;28;19918;-63
2023/03/20 20:37:37;;;;;;;;;;;20.40;68.80;;;;;;5092654;28;19958;-63
2023/03/20 20:40:04;;;;;;;;;;;20.40;68.00;;;;;;5092360;28;19962;-63
2023/03/20 20:42:31;;;;;;;;;;;20.40;67.90;;;;;;5092265;28;19920;-63
2023/03/20 20:44:57;;;;;;;;;;;20.40;68.00;;;;;;5091779;28;19908;-63
2023/03/20 20:47:24;;;;;;;;;;;20.40;68.30;;;;;;5073552;28;19918;-63
2023/03/20 20:49:51;;;;;;;;;;;20.40;68.10;;;;;;5080983;28;19915;-63
2023/03/20 20:52:17;;;;;;;;;;;20.40;67.90;;;;;;5090715;28;20334;-63
2023/03/20 20:54:44;;;;;;;;;;;20.50;68.10;;;;;;5072220;28;19909;-63
2023/03/20 20:57:11;;;;;;;;;;;20.50;68.00;;;;;;5076276;28;19931;-63
2023/03/20 20:59:39;;;;;;;;;;;20.50;67.40;;;;;;5086791;28;19923;-63
2023/03/20 21:02:11;;;;;;;;;;;20.50;67.70;;;;;;5086804;28;20423;-63
2023/03/20 21:04:41;;;;;;;;;;;20.50;68.40;;;;;;5087405;28;19951;-63
2023/03/20 21:07:11;;;;;;;;;;;20.50;69.30;;;;;;5089544;28;19912;-63
2023/03/20 21:09:38;;;;;;;;;;;20.50;68.80;;;;;;5085313;28;20019;-63
2023/03/20 21:12:05;;;;;;;;;;;20.50;69.00;;;;;;5089805;28;19918;-63
2023/03/20 21:14:32;;;;;;;;;;;20.60;69.30;;;;;;5084758;28;19919;-63
